Time;durP1;ratioP1;P1;durP2;ratioP2;P2;SDS_P1;SDS_P2;PMS_P1;PMS_P2;Temp;Humidity;BMP_temperature;BMP_pressure;BME280_temperature;BME280_humidity;BME280_pressure;Samples;Min_cycle;Max_cycle;Signal;HPM_P1;HPM_P2
2023/10/15 00:02:04;;;;;;;22.25;3.42;;;8.90;99.90;;;;;;5096032;28;20448;-67
2023/10/15 00:04:30;;;;;;;9.35;1.95;;;8.90;99.90;;;;;;5107923;28;20031;-68
2023/10/15 00:06:55;;;;;;;10.20;1.98;;;8.90;99.90;;;;;;5092373;28;20036;-68
2023/10/15 00:09:21;;;;;;;5.95;1.75;;;8.90;99.90;;;;;;5102402;28;20035;-68
2023/10/15 00:11:47;;;;;;;7.88;1.88;;;8.90;99.90;;;;;;5107472;28;20020;-67
2023/10/15 00:14:13;;;;;;;9.02;1.70;;;8.90;99.90;;;;;;5110088;28;20032;-68
2023/10/15 00:16:39;;;;;;;9.40;2.60;;;8.90;99.90;;;;;;5091379;28;20404;-66
2023/10/15 00:19:11;;;;;;;9.57;2.10;;;8.90;99.90;;;;;;5092514;28;20039;-67
2023/10/15 00:21:38;;;;;;;5.72;2.10;;;8.90;99.90;;;;;;5104179;28;20396;-66
2023/10/15 00:24:06;;;;;;;8.20;2.10;;;8.90;99.90;;;;;;5100599;28;20349;-66
2023/10/15 00:26:33;;;;;;;8.73;2.03;;;8.90;99.90;;;;;;5112357;28;20104;-66
2023/10/15 00:28:58;;;;;;;10.15;2.35;;;8.90;99.90;;;;;;5095160;28;20181;-65
2023/10/15 00:31:24;;;;;;;11.00;2.50;;;8.90;99.90;;;;;;5100283;28;20512;-65
2023/10/15 00:33:50;;;;;;;9.23;2.35;;;9.00;99.90;;;;;;5099682;28;20118;-65
2023/10/15 00:36:16;;;;;;;6.38;1.65;;;9.00;99.90;;;;;;5091037;28;20131;-65
2023/10/15 00:38:45;;;;;;;10.48;2.10;;;8.90;99.90;;;;;;5094978;28;20066;-68
2023/10/15 00:41:13;;;;;;;8.38;1.50;;;8.90;99.90;;;;;;5112641;28;20024;-67
2023/10/15 00:43:54;;;;;;;7.25;1.70;;;9.00;99.90;;;;;;5100793;28;20035;-66
2023/10/15 00:46:24;;;;;;;5.82;1.60;;;9.00;99.90;;;;;;5095104;28;20020;-66
2023/10/15 00:48:50;;;;;;;6.32;1.80;;;9.00;99.90;;;;;;5104999;28;20035;-65
2023/10/15 00:51:20;;;;;;;12.73;2.13;;;9.00;99.90;;;;;;5109951;28;20051;-65
2023/10/15 00:53:54;;;;;;;10.40;2.00;;;9.00;99.90;;;;;;5099134;28;20468;-67
2023/10/15 00:56:39;;;;;;;9.23;2.13;;;9.00;99.90;;;;;;5090247;28;20046;-67
2023/10/15 00:59:08;;;;;;;6.32;1.60;;;9.00;99.90;;;;;;5094794;28;20024;-67
2023/10/15 01:01:38;;;;;;;11.00;2.03;;;9.10;99.90;;;;;;5101382;28;20069;-68
2023/10/15 01:04:07;;;;;;;7.70;1.80;;;9.10;99.90;;;;;;5111009;28;20031;-67
2023/10/15 01:09:17;;;;;;;7.57;1.50;;;9.10;99.90;;;;;;5104656;28;20028;-66
2023/10/15 01:11:44;;;;;;;7.15;1.50;;;9.10;99.90;;;;;;5090268;28;20036;-67
2023/10/15 01:14:10;;;;;;;8.38;1.50;;;9.10;99.90;;;;;;5093283;28;20139;-65
2023/10/15 01:16:38;;;;;;;8.85;1.75;;;9.10;99.90;;;;;;5094365;28;20103;-65
2023/10/15 01:21:43;;;;;;;11.05;1.92;;;9.20;99.90;;;;;;5095391;28;20077;-65
2023/10/15 01:24:09;;;;;;;10.75;2.00;;;9.20;99.90;;;;;;5096824;28;20042;-65
2023/10/15 01:26:39;;;;;;;6.82;1.75;;;9.30;99.90;;;;;;5096786;28;20016;-65
2023/10/15 01:29:06;;;;;;;7.82;1.73;;;9.30;99.90;;;;;;5082207;28;20050;-66
2023/10/15 01:31:40;;;;;;;9.43;1.63;;;9.40;99.90;;;;;;5094613;28;20107;-66
2023/10/15 01:34:09;;;;;;;7.47;1.50;;;9.50;99.90;;;;;;5093394;28;20388;-66
2023/10/15 01:36:38;;;;;;;9.32;1.70;;;9.60;99.90;;;;;;5074183;28;20034;-65
2023/10/15 01:39:09;;;;;;;10.20;2.08;;;9.70;99.90;;;;;;5090951;28;20019;-65
2023/10/15 01:41:39;;;;;;;14.48;1.85;;;9.80;99.90;;;;;;5103014;28;20103;-65
2023/10/15 01:44:06;;;;;;;9.25;1.88;;;9.80;99.90;;;;;;5095009;28;20140;-65
2023/10/15 01:49:33;;;;;;;8.77;1.35;;;9.80;99.90;;;;;;5088372;28;20089;-67
2023/10/15 01:52:09;;;;;;;4.82;1.48;;;9.70;99.90;;;;;;5094831;28;20480;-68
2023/10/15 01:54:37;;;;;;;7.38;1.20;;;9.60;99.90;;;;;;5075083;28;20033;-67
2023/10/15 01:57:06;;;;;;;4.30;1.35;;;9.50;99.90;;;;;;5099982;28;20032;-66
2023/10/15 01:59:47;;;;;;;6.82;1.67;;;9.40;99.90;;;;;;5102378;28;20020;-65
2023/10/15 02:02:15;;;;;;;6.47;1.45;;;9.30;99.90;;;;;;5097514;28;20077;-65
2023/10/15 02:04:47;;;;;;;5.95;1.40;;;9.20;99.90;;;;;;5094826;28;20361;-65
2023/10/15 02:07:17;;;;;;;10.00;2.28;;;9.00;99.90;;;;;;5101667;28;20032;-65
2023/10/15 02:09:46;;;;;;;7.43;1.90;;;9.00;99.90;;;;;;5114832;28;20032;-66
2023/10/15 02:12:19;;;;;;;9.73;2.00;;;8.90;99.90;;;;;;5114449;28;20059;-64
2023/10/15 02:14:48;;;;;;;13.85;2.13;;;8.90;99.90;;;;;;5098891;28;20026;-66
2023/10/15 02:17:19;;;;;;;7.93;1.90;;;8.90;99.90;;;;;;5099560;28;20024;-68
2023/10/15 02:19:47;;;;;;;13.85;2.05;;;9.00;99.90;;;;;;5094325;28;20028;-67
2023/10/15 02:22:12;;;;;;;7.25;1.73;;;9.00;99.90;;;;;;5098886;28;20020;-68
2023/10/15 02:24:46;;;;;;;12.20;1.77;;;9.00;99.90;;;;;;5109025;28;20103;-67
2023/10/15 02:27:27;;;;;;;8.68;1.80;;;9.00;99.90;;;;;;5094432;28;20063;-66
2023/10/15 02:29:53;;;;;;;12.15;2.30;;;9.00;99.90;;;;;;5101791;28;20028;-65
2023/10/15 02:34:52;;;;;;;15.73;2.10;;;8.90;99.90;;;;;;5107324;28;20031;-65
2023/10/15 02:37:19;;;;;;;12.30;2.30;;;8.90;99.90;;;;;;5093723;28;20024;-65
2023/10/15 02:39:51;;;;;;;11.32;2.00;;;8.80;99.90;;;;;;5099049;28;20032;-65
2023/10/15 02:42:30;;;;;;;14.30;2.47;;;8.80;99.90;;;;;;5097575;28;20030;-66
2023/10/15 02:44:58;;;;;;;19.52;2.60;;;8.80;99.90;;;;;;5099885;28;20141;-66
2023/10/15 02:47:48;;;;;;;8.43;1.60;;;8.80;99.90;;;;;;5106438;28;20020;-67
2023/10/15 02:50:18;;;;;;;6.30;1.83;;;8.70;99.90;;;;;;5114177;28;20528;-66
2023/10/15 02:52:44;;;;;;;8.98;1.88;;;8.70;99.90;;;;;;5101299;28;20031;-65
2023/10/15 02:55:11;;;;;;;8.50;1.88;;;8.70;99.90;;;;;;5095347;28;20043;-65
2023/10/15 02:57:42;;;;;;;9.57;1.90;;;8.70;99.90;;;;;;5092920;28;20486;-65
2023/10/15 03:00:51;;;;;;;9.00;1.57;;;8.60;99.90;;;;;;5105041;28;20035;-65
2023/10/15 03:03:08;;;;;;;7.55;1.70;;;8.60;99.90;;;;;;5100530;28;20252;-66
2023/10/15 03:05:39;;;;;;;4.00;1.17;;;8.50;99.90;;;;;;5101769;28;20016;-65
2023/10/15 03:08:05;;;;;;;8.27;2.20;;;8.50;99.90;;;;;;5111637;28;20138;-67
2023/10/15 03:10:46;;;;;;;8.35;1.65;;;8.50;99.90;;;;;;5113591;28;20543;-67
2023/10/15 03:13:15;;;;;;;4.18;1.17;;;8.60;99.90;;;;;;5098934;28;20083;-68
2023/10/15 03:15:48;;;;;;;6.03;1.50;;;8.70;99.90;;;;;;5099706;28;20388;-68
2023/10/15 03:18:15;;;;;;;5.28;1.27;;;8.70;99.90;;;;;;5099560;28;20024;-66
2023/10/15 03:20:48;;;;;;;4.55;1.20;;;8.60;99.90;;;;;;5097529;28;20020;-69
2023/10/15 03:23:17;;;;;;;7.20;1.75;;;8.60;99.90;;;;;;5113706;28;20027;-67
2023/10/15 03:25:43;;;;;;;5.38;1.75;;;8.60;99.90;;;;;;5098878;28;20166;-67
2023/10/15 03:28:12;;;;;;;9.07;3.22;;;8.60;99.90;;;;;;5094419;28;20455;-66
2023/10/15 03:30:44;;;;;;;11.20;3.67;;;8.60;99.90;;;;;;5110393;28;20387;-67
2023/10/15 03:33:11;;;;;;;11.43;3.58;;;8.60;99.90;;;;;;5113223;28;20429;-67
2023/10/15 03:35:39;;;;;;;10.35;2.50;;;8.60;99.90;;;;;;5099185;28;20024;-67
2023/10/15 03:38:07;;;;;;;12.15;3.40;;;8.60;99.90;;;;;;5109493;28;20043;-66
2023/10/15 03:40:42;;;;;;;11.63;2.90;;;8.70;99.90;;;;;;5108542;28;20035;-65
2023/10/15 03:43:15;;;;;;;10.52;2.83;;;8.70;99.90;;;;;;5092065;28;20028;-65
2023/10/15 03:45:50;;;;;;;12.82;2.42;;;8.70;99.90;;;;;;5092167;28;20360;-66
2023/10/15 03:48:30;;;;;;;11.45;2.88;;;8.60;99.90;;;;;;5101072;28;20020;-65
2023/10/15 03:50:58;;;;;;;14.18;3.63;;;8.60;99.90;;;;;;5092640;28;20028;-67
2023/10/15 03:53:28;;;;;;;8.60;2.15;;;8.50;99.90;;;;;;5092471;28;20395;-66
2023/10/15 03:56:01;;;;;;;13.52;2.75;;;8.50;99.90;;;;;;5095776;28;20036;-66
2023/10/15 03:58:31;;;;;;;10.82;1.85;;;8.40;99.90;;;;;;5108336;28;20110;-65
2023/10/15 04:03:43;;;;;;;10.05;2.85;;;8.40;99.90;;;;;;5092940;28;20032;-65
2023/10/15 04:06:09;;;;;;;10.25;2.45;;;8.30;99.90;;;;;;5095788;28;20038;-65
2023/10/15 04:08:37;;;;;;;8.13;2.20;;;8.30;99.90;;;;;;5107884;28;20081;-65
2023/10/15 04:11:03;;;;;;;8.88;2.20;;;8.30;99.90;;;;;;5092598;28;20067;-67
2023/10/15 04:13:29;;;;;;;15.13;2.20;;;8.30;99.90;;;;;;5102505;28;20046;-65
2023/10/15 04:15:56;;;;;;;9.85;2.22;;;8.30;99.90;;;;;;5111401;28;20028;-66
2023/10/15 04:18:28;;;;;;;8.57;2.13;;;8.40;99.90;;;;;;5101033;28;20028;-66
2023/10/15 04:20:56;;;;;;;10.48;2.28;;;8.50;99.90;;;;;;5112965;28;20031;-66
2023/10/15 04:23:30;;;;;;;12.65;2.13;;;8.60;99.90;;;;;;5108816;28;20036;-67
2023/10/15 04:26:04;;;;;;;14.73;2.78;;;8.80;99.90;;;;;;5095821;28;20404;-65
2023/10/15 04:28:30;;;;;;;19.08;4.00;;;8.90;99.90;;;;;;5072132;28;20372;-66
2023/10/15 04:30:56;;;;;;;21.30;3.88;;;9.00;99.90;;;;;;5072366;28;20025;-67
2023/10/15 04:33:25;;;;;;;19.25;3.58;;;9.10;99.90;;;;;;5104885;28;20479;-65
2023/10/15 04:35:51;;;;;;;15.73;2.53;;;9.20;99.90;;;;;;5111509;28;20379;-65
2023/10/15 04:38:22;;;;;;;16.38;3.10;;;9.20;99.90;;;;;;5092596;28;20030;-64
2023/10/15 04:43:26;;;;;;;14.68;3.35;;;9.40;99.90;;;;;;5095332;28;20507;-65
2023/10/15 04:45:56;;;;;;;21.23;4.72;;;9.50;99.90;;;;;;5109961;28;20028;-64
2023/10/15 04:48:36;;;;;;;15.00;2.70;;;9.50;99.90;;;;;;5099637;28;20073;-65
2023/10/15 04:51:12;;;;;;;16.33;2.92;;;9.60;99.90;;;;;;5091371;28;20426;-66
2023/10/15 04:53:48;;;;;;;9.73;2.95;;;9.60;99.90;;;;;;5102547;28;20080;-66
2023/10/15 04:56:14;;;;;;;17.67;5.03;;;9.60;99.90;;;;;;5099609;28;20435;-65
2023/10/15 04:58:40;;;;;;;11.18;3.03;;;9.60;99.90;;;;;;5099479;28;20027;-66
2023/10/15 05:01:07;;;;;;;11.40;2.40;;;9.70;99.90;;;;;;5108369;28;20396;-64
2023/10/15 05:03:33;;;;;;;9.00;2.85;;;9.70;99.90;;;;;;5107473;28;20034;-65
2023/10/15 05:06:03;;;;;;;8.93;2.53;;;9.70;99.90;;;;;;5110446;28;20160;-65
2023/10/15 05:08:28;;;;;;;11.65;2.50;;;9.70;99.90;;;;;;5103166;28;20023;-67
2023/10/15 05:10:54;;;;;;;15.25;3.85;;;9.80;99.90;;;;;;5105322;28;20356;-66
2023/10/15 05:13:20;;;;;;;13.93;3.05;;;9.80;99.90;;;;;;5105507;28;20028;-66
2023/10/15 05:15:47;;;;;;;9.73;2.17;;;9.80;99.90;;;;;;5098658;27;20376;-64
2023/10/15 05:18:14;;;;;;;8.98;2.30;;;9.90;99.90;;;;;;5097584;28;20447;-65
2023/10/15 05:20:41;;;;;;;12.32;2.85;;;9.90;99.90;;;;;;5103489;28;20028;-64
2023/10/15 05:23:06;;;;;;;16.52;3.10;;;9.90;99.90;;;;;;5116015;28;20036;-67
2023/10/15 05:25:32;;;;;;;12.63;2.67;;;9.90;99.90;;;;;;5101280;28;20790;-67
2023/10/15 05:28:01;;;;;;;13.90;3.17;;;9.80;99.90;;;;;;5110943;28;20059;-66
2023/10/15 05:30:26;;;;;;;14.27;3.75;;;9.80;99.90;;;;;;5110297;28;20086;-67
2023/10/15 05:32:52;;;;;;;12.65;3.28;;;9.70;99.90;;;;;;5106335;28;20048;-65
2023/10/15 05:35:18;;;;;;;15.15;5.22;;;9.70;99.90;;;;;;5098114;28;20032;-66
2023/10/15 05:37:45;;;;;;;13.32;3.30;;;9.70;99.90;;;;;;5095237;28;20056;-64
2023/10/15 05:40:17;;;;;;;13.88;4.57;;;9.70;99.90;;;;;;5095286;28;20028;-64
2023/10/15 05:42:43;;;;;;;17.05;6.28;;;9.70;99.90;;;;;;5095714;28;20046;-63
2023/10/15 05:45:09;;;;;;;19.00;6.10;;;9.70;99.90;;;;;;5104781;28;20514;-66
2023/10/15 05:47:35;;;;;;;18.05;4.90;;;9.70;99.90;;;;;;5105378;28;20028;-65
2023/10/15 05:50:01;;;;;;;12.18;3.97;;;9.80;99.90;;;;;;5098740;28;20020;-65
2023/10/15 05:52:26;;;;;;;12.52;4.40;;;9.80;99.90;;;;;;5112166;28;20108;-65
2023/10/15 05:54:53;;;;;;;14.95;4.40;;;9.90;99.90;;;;;;5115363;28;20047;-64
2023/10/15 05:57:22;;;;;;;13.00;3.90;;;10.00;99.90;;;;;;5103723;28;20028;-64
2023/10/15 05:59:51;;;;;;;18.42;6.90;;;10.00;99.90;;;;;;5111827;28;20035;-63
2023/10/15 06:02:17;;;;;;;17.90;5.47;;;10.00;99.90;;;;;;5104125;28;20088;-64
2023/10/15 06:04:43;;;;;;;17.90;4.15;;;10.10;99.90;;;;;;5113887;28;20519;-65
2023/10/15 06:07:10;;;;;;;17.30;3.83;;;10.20;99.90;;;;;;5101842;28;20309;-66
2023/10/15 06:09:35;;;;;;;15.65;4.55;;;10.30;99.90;;;;;;5104241;28;20016;-66
2023/10/15 06:12:01;;;;;;;19.50;3.30;;;10.30;99.90;;;;;;5101961;28;20023;-67
2023/10/15 06:14:29;;;;;;;11.00;2.95;;;10.40;99.90;;;;;;5102618;28;20035;-66
2023/10/15 06:16:56;;;;;;;13.07;3.80;;;10.40;99.90;;;;;;5115122;28;20027;-65
2023/10/15 06:19:21;;;;;;;15.07;3.67;;;10.30;99.90;;;;;;5095229;28;20039;-67
2023/10/15 06:21:47;;;;;;;15.40;3.47;;;10.20;99.90;;;;;;5100483;28;20029;-64
2023/10/15 06:24:13;;;;;;;14.55;3.47;;;10.20;99.90;;;;;;5096027;28;20028;-65
2023/10/15 06:26:40;;;;;;;9.70;2.90;;;10.00;99.90;;;;;;5105090;28;20043;-65
2023/10/15 06:29:06;;;;;;;15.23;5.20;;;9.90;99.90;;;;;;5098551;28;20032;-65
2023/10/15 06:31:32;;;;;;;15.57;3.67;;;9.80;99.90;;;;;;5101271;28;20503;-65
2023/10/15 06:33:58;;;;;;;8.77;2.67;;;9.70;99.90;;;;;;5087319;28;20172;-65
2023/10/15 06:36:23;;;;;;;8.63;2.30;;;9.70;99.90;;;;;;5098671;28;20044;-65
2023/10/15 06:38:52;;;;;;;10.00;2.22;;;9.60;99.90;;;;;;5110004;28;20043;-65
2023/10/15 06:41:17;;;;;;;7.80;2.22;;;9.50;99.90;;;;;;5102879;28;20032;-65
2023/10/15 06:43:43;;;;;;;13.35;4.25;;;9.50;99.90;;;;;;5112314;28;20478;-65
2023/10/15 06:46:09;;;;;;;11.60;4.05;;;9.50;99.90;;;;;;5114091;28;20059;-66
2023/10/15 06:48:37;;;;;;;10.60;2.80;;;9.50;99.90;;;;;;5114147;28;20032;-65
2023/10/15 06:51:07;;;;;;;12.48;3.20;;;9.50;99.90;;;;;;5099707;28;20024;-65
2023/10/15 06:53:34;;;;;;;8.93;2.13;;;9.50;99.90;;;;;;5090226;28;20529;-65
2023/10/15 06:56:06;;;;;;;19.67;5.75;;;9.50;99.90;;;;;;5081932;28;20036;-65
2023/10/15 06:58:33;;;;;;;15.75;3.17;;;9.50;99.90;;;;;;5076225;28;20021;-65
2023/10/15 07:00:59;;;;;;;20.50;3.58;;;9.60;99.90;;;;;;5088848;28;20163;-66
2023/10/15 07:03:25;;;;;;;17.15;4.82;;;9.70;99.90;;;;;;5081042;28;20034;-66
2023/10/15 07:05:51;;;;;;;15.20;4.68;;;9.90;99.90;;;;;;5083790;28;20032;-66
2023/10/15 07:08:16;;;;;;;13.82;3.80;;;10.00;99.90;;;;;;5075649;28;20055;-65
2023/10/15 07:10:43;;;;;;;14.13;4.97;;;10.00;99.90;;;;;;5082000;28;20384;-66
2023/10/15 07:13:08;;;;;;;8.73;2.35;;;10.10;99.90;;;;;;5108294;28;20032;-66
2023/10/15 07:15:38;;;;;;;12.02;4.35;;;10.20;99.90;;;;;;5097612;28;20028;-65
2023/10/15 07:18:04;;;;;;;16.38;3.38;;;10.20;99.90;;;;;;5104712;28;20027;-66
2023/10/15 07:20:30;;;;;;;11.27;3.05;;;10.20;99.90;;;;;;5092259;28;20043;-65
2023/10/15 07:22:57;;;;;;;8.70;2.92;;;10.20;99.90;;;;;;5082433;28;20034;-66
2023/10/15 07:25:29;;;;;;;8.13;2.83;;;10.20;99.90;;;;;;5081139;28;20061;-66
2023/10/15 07:27:57;;;;;;;8.38;1.83;;;10.20;99.90;;;;;;5090041;28;20103;-65
2023/10/15 07:30:23;;;;;;;8.77;2.17;;;10.30;99.90;;;;;;5081722;28;20052;-67
2023/10/15 07:32:53;;;;;;;8.65;2.03;;;10.30;99.90;;;;;;5081818;28;20464;-65
2023/10/15 07:35:21;;;;;;;8.80;2.20;;;10.30;99.90;;;;;;5074391;28;20107;-67
2023/10/15 07:37:49;;;;;;;13.38;2.20;;;10.30;99.90;;;;;;5088123;28;20099;-67
2023/10/15 07:40:16;;;;;;;7.55;1.67;;;10.30;99.90;;;;;;5097664;28;20027;-65
2023/10/15 07:42:43;;;;;;;11.52;1.98;;;10.40;99.90;;;;;;5099278;28;20103;-65
2023/10/15 07:45:09;;;;;;;5.70;1.40;;;10.50;99.90;;;;;;5100288;28;20052;-66
2023/10/15 07:47:37;;;;;;;3.92;1.38;;;10.70;99.90;;;;;;5090050;28;20047;-67
2023/10/15 07:50:13;;;;;;;12.82;3.08;;;10.90;99.90;;;;;;5107257;28;20050;-66
2023/10/15 07:52:38;;;;;;;6.90;1.30;;;10.90;99.90;;;;;;5099783;28;20072;-65
2023/10/15 07:55:06;;;;;;;6.35;1.25;;;11.10;99.90;;;;;;5100961;28;20425;-64
2023/10/15 07:57:34;;;;;;;8.32;1.60;;;11.10;99.90;;;;;;5096448;28;20028;-66
2023/10/15 08:00:00;;;;;;;10.68;1.90;;;11.20;99.90;;;;;;5092005;28;20078;-64
2023/10/15 08:02:26;;;;;;;9.90;1.60;;;11.20;99.90;;;;;;5093757;28;20045;-67
2023/10/15 08:04:54;;;;;;;8.35;1.60;;;11.20;99.90;;;;;;5100985;28;20055;-66
2023/10/15 08:07:20;;;;;;;10.13;1.92;;;11.30;99.90;;;;;;5101593;28;20126;-64
2023/10/15 08:09:46;;;;;;;11.13;2.22;;;11.60;99.90;;;;;;5091210;28;20038;-65
2023/10/15 08:12:11;;;;;;;13.18;2.28;;;11.70;99.90;;;;;;5080925;28;20715;-66
2023/10/15 08:14:37;;;;;;;11.18;1.67;;;11.70;99.90;;;;;;5082630;28;20024;-64
2023/10/15 08:17:03;;;;;;;10.57;1.88;;;11.50;99.90;;;;;;5094021;28;20031;-64
2023/10/15 08:19:28;;;;;;;12.68;2.13;;;11.10;99.90;;;;;;5107382;28;20024;-64
2023/10/15 08:21:54;;;;;;;7.63;3.08;;;10.80;99.90;;;;;;5101022;28;20028;-65
2023/10/15 08:24:20;;;;;;;10.05;3.17;;;10.60;99.90;;;;;;5102157;28;20061;-66
2023/10/15 08:26:46;;;;;;;10.60;2.33;;;10.30;99.90;;;;;;5084003;28;20028;-66
2023/10/15 08:29:12;;;;;;;12.15;2.00;;;10.20;99.90;;;;;;5078390;28;20032;-67
2023/10/15 08:31:38;;;;;;;10.93;2.58;;;10.00;99.90;;;;;;5080152;28;20021;-67
2023/10/15 08:34:04;;;;;;;9.60;2.45;;;9.80;99.90;;;;;;5080130;28;20043;-66
2023/10/15 08:36:29;;;;;;;10.30;3.00;;;9.70;99.90;;;;;;5080997;28;20056;-68
2023/10/15 08:38:55;;;;;;;11.32;2.05;;;9.60;99.90;;;;;;5082149;28;20062;-67
2023/10/15 08:41:26;;;;;;;10.57;1.75;;;9.70;99.90;;;;;;5083369;28;20032;-67
2023/10/15 08:43:52;;;;;;;14.07;2.40;;;9.80;99.90;;;;;;5079383;28;20064;-68
2023/10/15 08:46:22;;;;;;;9.73;2.45;;;9.90;99.90;;;;;;5077894;28;20079;-68
2023/10/15 08:48:49;;;;;;;13.73;2.70;;;9.90;99.90;;;;;;5079188;28;20479;-68
2023/10/15 08:51:21;;;;;;;13.35;3.38;;;9.80;99.90;;;;;;5084393;28;20044;-68
2023/10/15 08:53:49;;;;;;;16.88;2.95;;;9.60;99.90;;;;;;5082447;28;20047;-68
2023/10/15 08:56:21;;;;;;;17.40;3.35;;;9.50;99.90;;;;;;5090629;28;20031;-68
2023/10/15 08:58:52;;;;;;;14.93;2.88;;;9.50;99.90;;;;;;5096077;28;20400;-67
2023/10/15 09:01:21;;;;;;;12.32;3.30;;;9.70;99.90;;;;;;5107105;28;20039;-65
2023/10/15 09:03:47;;;;;;;18.13;3.97;;;9.90;99.90;;;;;;5109033;28;20099;-65
2023/10/15 09:06:14;;;;;;;12.00;3.05;;;10.30;99.90;;;;;;5089069;28;20122;-66
2023/10/15 09:08:41;;;;;;;16.00;2.80;;;10.80;99.90;;;;;;5081808;28;20085;-67
2023/10/15 09:11:07;;;;;;;15.43;3.85;;;11.00;99.90;;;;;;5084763;28;20064;-66
2023/10/15 09:13:36;;;;;;;11.68;2.80;;;11.00;99.90;;;;;;5076627;28;20425;-67
2023/10/15 09:16:07;;;;;;;16.67;3.22;;;10.90;99.90;;;;;;5087832;28;20028;-66
2023/10/15 09:18:36;;;;;;;14.45;3.17;;;10.80;99.90;;;;;;5084935;28;20024;-66
2023/10/15 09:21:06;;;;;;;13.98;2.63;;;10.80;99.90;;;;;;5095305;28;20027;-66
2023/10/15 09:23:37;;;;;;;16.27;3.17;;;10.80;99.90;;;;;;5110239;28;20016;-66
2023/10/15 09:26:06;;;;;;;13.90;2.83;;;10.80;99.90;;;;;;5104280;28;20027;-65
2023/10/15 09:28:35;;;;;;;11.63;2.67;;;10.80;99.90;;;;;;5102857;28;20028;-66
2023/10/15 09:31:05;;;;;;;11.75;2.72;;;10.90;99.90;;;;;;5099677;28;20084;-66
2023/10/15 09:33:32;;;;;;;11.50;2.40;;;10.90;99.90;;;;;;5098776;28;20044;-66
2023/10/15 09:36:02;;;;;;;9.23;2.20;;;11.10;99.90;;;;;;5087943;28;20078;-66
2023/10/15 09:38:31;;;;;;;13.95;3.10;;;11.50;99.90;;;;;;5081435;28;20024;-66
2023/10/15 09:40:58;;;;;;;12.10;2.50;;;11.50;99.90;;;;;;5081229;28;20480;-66
2023/10/15 09:43:25;;;;;;;14.27;2.40;;;12.10;99.90;;;;;;5087761;28;20467;-66
2023/10/15 09:45:54;;;;;;;9.30;1.98;;;13.50;99.90;;;;;;5092986;28;20032;-65
2023/10/15 09:48:24;;;;;;;8.82;1.98;;;14.80;99.90;;;;;;5084989;28;20028;-66
2023/10/15 09:50:52;;;;;;;8.75;1.33;;;16.00;99.90;;;;;;5076189;28;20086;-65
2023/10/15 09:53:21;;;;;;;5.18;1.45;;;16.80;99.40;;;;;;5089380;28;20084;-66
2023/10/15 09:55:48;;;;;;;6.35;1.58;;;17.40;98.60;;;;;;5086309;28;20021;-67
2023/10/15 09:58:15;;;;;;;7.57;1.63;;;18.20;97.30;;;;;;5082487;28;20111;-67
2023/10/15 10:00:47;;;;;;;9.02;1.70;;;18.80;96.70;;;;;;5087891;28;20081;-67
2023/10/15 10:03:29;;;;;;;9.05;1.80;;;19.70;96.20;;;;;;5091076;28;20241;-67
2023/10/15 10:06:32;;;;;;;8.93;1.80;;;20.50;93.90;;;;;;5077880;28;20031;-67
2023/10/15 10:09:21;;;;;;;10.88;2.80;;;20.20;93.10;;;;;;5078977;28;20025;-66
2023/10/15 10:12:24;;;;;;;7.20;1.83;;;19.30;94.20;;;;;;5079113;28;20020;-67
2023/10/15 10:15:22;;;;;;;7.35;1.77;;;18.60;94.40;;;;;;5085035;28;20125;-65
2023/10/15 10:17:50;;;;;;;12.20;3.00;;;18.90;94.30;;;;;;5077590;28;20024;-65
2023/10/15 10:20:19;;;;;;;8.93;1.40;;;19.70;93.10;;;;;;5101029;28;20489;-65
2023/10/15 10:22:59;;;;;;;12.45;3.00;;;19.80;94.60;;;;;;5109157;28;20507;-66
2023/10/15 10:25:39;;;;;;;5.15;1.65;;;19.10;95.60;;;;;;5081256;28;20028;-67
2023/10/15 10:28:18;;;;;;;6.38;1.67;;;18.10;96.80;;;;;;5105093;28;20434;-65
2023/10/15 10:30:59;;;;;;;9.80;2.25;;;17.10;97.40;;;;;;5108652;28;20490;-66
2023/10/15 10:33:49;;;;;;;9.05;1.90;;;16.00;98.90;;;;;;5094130;28;20500;-64
2023/10/15 10:36:29;;;;;;;10.82;2.17;;;15.20;99.90;;;;;;5104453;28;20026;-67
2023/10/15 10:39:11;;;;;;;7.57;2.15;;;14.40;99.90;;;;;;5098345;28;20535;-66
2023/10/15 10:41:48;;;;;;;11.45;2.20;;;13.90;99.90;;;;;;5084395;28;20023;-67
2023/10/15 10:44:23;;;;;;;11.13;3.10;;;13.80;99.90;;;;;;5106818;28;20059;-65
2023/10/15 10:46:52;;;;;;;8.23;1.70;;;14.50;99.90;;;;;;5098509;28;20024;-66
2023/10/15 10:49:31;;;;;;;15.80;4.35;;;15.10;99.90;;;;;;5101186;28;20057;-66
2023/10/15 10:52:14;;;;;;;16.23;4.65;;;16.10;99.90;;;;;;5104316;28;20046;-65
2023/10/15 10:54:40;;;;;;;16.73;5.97;;;17.40;99.90;;;;;;5103181;28;20119;-64
2023/10/15 10:57:09;;;;;;;8.95;1.92;;;17.80;99.90;;;;;;5110058;28;20118;-66
2023/10/15 10:59:36;;;;;;;8.43;1.92;;;17.70;99.60;;;;;;5098639;28;20076;-65
2023/10/15 11:02:05;;;;;;;7.88;1.90;;;17.40;99.30;;;;;;5103178;28;20024;-65
2023/10/15 11:04:32;;;;;;;20.02;6.18;;;17.30;99.30;;;;;;5080218;28;20499;-65
2023/10/15 11:06:58;;;;;;;9.25;2.47;;;17.00;99.20;;;;;;5081365;28;20020;-65
2023/10/15 11:09:25;;;;;;;10.90;3.35;;;16.70;98.40;;;;;;5083631;28;20386;-65
2023/10/15 11:11:57;;;;;;;14.43;3.33;;;16.30;99.90;;;;;;5079050;28;20043;-65
2023/10/15 11:14:25;;;;;;;11.00;2.55;;;16.10;99.50;;;;;;5085725;28;20036;-65
2023/10/15 11:16:52;;;;;;;10.38;3.45;;;15.80;99.90;;;;;;5085375;28;20067;-66
2023/10/15 11:19:22;;;;;;;38.17;10.45;;;16.20;99.90;;;;;;5087224;28;20024;-66
2023/10/15 11:21:49;;;;;;;11.30;3.28;;;16.50;99.90;;;;;;5087145;28;20035;-64
2023/10/15 11:24:16;;;;;;;14.15;3.08;;;16.60;99.90;;;;;;5086302;28;20040;-65
2023/10/15 11:26:42;;;;;;;7.07;3.05;;;17.20;99.90;;;;;;5085013;28;20081;-65
2023/10/15 11:29:18;;;;;;;10.13;3.13;;;18.30;98.70;;;;;;5086817;28;20033;-63
2023/10/15 11:31:45;;;;;;;15.15;4.07;;;19.40;97.00;;;;;;5084757;28;20048;-65
2023/10/15 11:34:19;;;;;;;14.70;4.47;;;20.50;95.00;;;;;;5083699;28;20036;-65
2023/10/15 11:36:48;;;;;;;10.38;2.72;;;20.80;94.20;;;;;;5085355;28;20137;-65
2023/10/15 11:39:18;;;;;;;12.23;2.47;;;20.50;95.30;;;;;;5087941;28;20024;-65
2023/10/15 11:41:56;;;;;;;9.00;2.38;;;20.70;94.90;;;;;;5085146;28;20035;-64
2023/10/15 11:44:31;;;;;;;14.02;3.78;;;21.40;94.40;;;;;;5086369;28;20032;-65
2023/10/15 11:46:57;;;;;;;8.18;1.83;;;21.80;93.00;;;;;;5088566;28;20388;-66
2023/10/15 11:49:24;;;;;;;10.57;2.83;;;21.90;92.20;;;;;;5097134;28;20142;-65
2023/10/15 11:51:55;;;;;;;10.65;2.70;;;22.00;92.40;;;;;;5096480;28;20048;-65
2023/10/15 11:54:25;;;;;;;7.93;2.53;;;22.00;91.60;;;;;;5094877;28;20039;-65
2023/10/15 11:56:54;;;;;;;4.18;1.02;;;22.00;92.00;;;;;;5094774;28;20035;-65
2023/10/15 11:59:21;;;;;;;5.80;0.98;;;22.10;90.70;;;;;;5097003;28;20119;-65
2023/10/15 12:01:51;;;;;;;6.32;2.08;;;22.30;90.10;;;;;;5095585;28;20031;-65
2023/10/15 12:04:20;;;;;;;4.97;1.98;;;21.80;90.20;;;;;;5094229;28;20164;-65
2023/10/15 12:06:47;;;;;;;6.47;2.00;;;21.00;91.00;;;;;;5096382;28;20020;-65
2023/10/15 12:09:16;;;;;;;5.53;1.58;;;20.60;92.10;;;;;;5096913;28;20028;-65
2023/10/15 12:11:42;;;;;;;12.77;4.97;;;20.80;92.20;;;;;;5096209;28;20062;-65
2023/10/15 12:14:08;;;;;;;9.52;2.83;;;21.20;92.00;;;;;;5095835;28;20042;-67
2023/10/15 12:16:39;;;;;;;8.73;3.08;;;21.60;92.00;;;;;;5095985;28;20024;-65
2023/10/15 12:19:06;;;;;;;8.32;2.80;;;20.90;94.00;;;;;;5097775;28;20035;-65
2023/10/15 12:21:31;;;;;;;7.65;2.38;;;20.00;95.30;;;;;;5104330;28;20031;-65
2023/10/15 12:23:58;;;;;;;6.93;1.98;;;19.10;95.90;;;;;;5103046;28;20043;-65
2023/10/15 12:26:23;;;;;;;9.48;2.80;;;18.20;95.40;;;;;;5102631;28;20019;-64
2023/10/15 12:28:51;;;;;;;7.25;2.47;;;17.30;97.00;;;;;;5103934;28;20020;-64
2023/10/15 12:31:17;;;;;;;6.53;1.83;;;16.70;98.50;;;;;;5103687;28;20074;-65
2023/10/15 12:33:43;;;;;;;8.30;3.30;;;16.50;98.10;;;;;;5094102;28;20412;-65
2023/10/15 12:36:09;;;;;;;9.88;3.42;;;16.30;98.50;;;;;;5103601;28;20028;-66
2023/10/15 12:38:35;;;;;;;14.75;5.07;;;16.10;99.40;;;;;;5102140;28;20024;-65
2023/10/15 12:41:02;;;;;;;11.95;2.75;;;15.80;99.80;;;;;;5101490;28;20382;-65
2023/10/15 12:43:28;;;;;;;13.05;3.92;;;15.70;99.90;;;;;;5099343;28;20024;-66
2023/10/15 12:45:54;;;;;;;10.88;2.80;;;16.00;99.90;;;;;;5103754;28;20016;-64
2023/10/15 12:48:20;;;;;;;10.13;2.30;;;16.50;99.80;;;;;;5102506;28;20476;-65
2023/10/15 12:50:50;;;;;;;12.45;5.10;;;17.00;99.70;;;;;;5101183;28;20028;-66
2023/10/15 12:53:15;;;;;;;11.32;4.57;;;17.20;98.60;;;;;;5099721;28;20051;-65
2023/10/15 12:55:43;;;;;;;14.30;3.30;;;17.50;98.20;;;;;;5100685;28;20020;-64
2023/10/15 12:58:10;;;;;;;12.00;2.53;;;18.10;98.40;;;;;;5103262;28;20486;-64
2023/10/15 13:00:39;;;;;;;11.27;2.20;;;18.70;97.80;;;;;;5101120;28;20024;-66
2023/10/15 13:03:05;;;;;;;11.50;2.10;;;18.50;97.50;;;;;;5103266;28;20030;-68
2023/10/15 13:05:31;;;;;;;7.25;2.08;;;17.40;99.60;;;;;;5103881;28;20039;-65
2023/10/15 13:07:57;;;;;;;10.02;2.47;;;16.20;99.90;;;;;;5102401;28;20027;-66
2023/10/15 13:10:22;;;;;;;14.05;3.58;;;15.20;99.90;;;;;;5099735;28;20024;-66
2023/10/15 13:12:50;;;;;;;18.10;4.22;;;14.50;99.90;;;;;;5105222;28;20028;-66